sensor_id;sensor_type;location;lat;lon;timestamp;P1;durP1;ratioP1;P2;durP2;ratioP2
22186;SDS011;11259;52.146;12.844;2023-05-16T00:01:06;2.00;;;1.83;;
22186;SDS011;11259;52.146;12.844;2023-05-16T00:03:31;2.08;;;1.88;;
22186;SDS011;11259;52.146;12.844;2023-05-16T00:05:58;3.60;;;2.65;;
22186;SDS011;11259;52.146;12.844;2023-05-16T00:08:23;2.90;;;1.92;;
22186;SDS011;11259;52.146;12.844;2023-05-16T00:10:48;2.08;;;1.85;;
22186;SDS011;11259;52.146;12.844;2023-05-16T00:13:14;2.70;;;2.00;;
22186;SDS011;11259;52.146;12.844;2023-05-16T00:15:39;2.72;;;1.92;;
22186;SDS011;11259;52.146;12.844;2023-05-16T00:18:04;2.50;;;2.30;;
22186;SDS011;11259;52.146;12.844;2023-05-16T00:20:30;3.05;;;2.25;;
22186;SDS011;11259;52.146;12.844;2023-05-16T00:22:56;2.75;;;2.30;;
22186;SDS011;11259;52.146;12.844;2023-05-16T00:25:22;3.70;;;2.42;;
22186;SDS011;11259;52.146;12.844;2023-05-16T00:27:47;2.30;;;2.10;;
22186;SDS011;11259;52.146;12.844;2023-05-16T00:30:12;2.30;;;1.90;;
22186;SDS011;11259;52.146;12.844;2023-05-16T00:32:38;3.08;;;2.05;;
22186;SDS011;11259;52.146;12.844;2023-05-16T00:35:03;2.90;;;2.22;;
22186;SDS011;11259;52.146;12.844;2023-05-16T00:37:30;2.10;;;1.90;;
22186;SDS011;11259;52.146;12.844;2023-05-16T00:39:57;3.13;;;1.92;;
22186;SDS011;11259;52.146;12.844;2023-05-16T00:42:22;4.03;;;2.15;;
22186;SDS011;11259;52.146;12.844;2023-05-16T00:44:47;3.40;;;2.28;;
22186;SDS011;11259;52.146;12.844;2023-05-16T00:47:13;2.50;;;2.30;;
22186;SDS011;11259;52.146;12.844;2023-05-16T00:49:38;2.60;;;2.03;;
22186;SDS011;11259;52.146;12.844;2023-05-16T00:52:04;4.15;;;2.70;;
22186;SDS011;11259;52.146;12.844;2023-05-16T00:54:29;2.40;;;1.75;;
22186;SDS011;11259;52.146;12.844;2023-05-16T00:56:56;4.07;;;2.78;;
22186;SDS011;11259;52.146;12.844;2023-05-16T00:59:22;1.88;;;1.70;;
22186;SDS011;11259;52.146;12.844;2023-05-16T01:01:47;2.45;;;1.90;;
22186;SDS011;11259;52.146;12.844;2023-05-16T01:04:14;6.03;;;2.42;;
22186;SDS011;11259;52.146;12.844;2023-05-16T01:06:40;2.88;;;2.58;;
22186;SDS011;11259;52.146;12.844;2023-05-16T01:09:05;5.25;;;1.92;;
22186;SDS011;11259;52.146;12.844;2023-05-16T01:11:32;2.83;;;2.30;;
22186;SDS011;11259;52.146;12.844;2023-05-16T01:14:04;3.00;;;2.15;;
22186;SDS011;11259;52.146;12.844;2023-05-16T01:16:45;3.03;;;2.35;;
22186;SDS011;11259;52.146;12.844;2023-05-16T01:19:18;3.28;;;2.15;;
22186;SDS011;11259;52.146;12.844;2023-05-16T01:21:47;3.13;;;2.60;;
22186;SDS011;11259;52.146;12.844;2023-05-16T01:24:19;2.30;;;2.00;;
22186;SDS011;11259;52.146;12.844;2023-05-16T01:26:48;2.28;;;1.85;;
22186;SDS011;11259;52.146;12.844;2023-05-16T01:29:13;6.70;;;2.67;;
22186;SDS011;11259;52.146;12.844;2023-05-16T01:31:39;3.40;;;2.08;;
22186;SDS011;11259;52.146;12.844;2023-05-16T01:34:04;1.88;;;1.67;;
22186;SDS011;11259;52.146;12.844;2023-05-16T01:36:32;2.00;;;1.80;;
22186;SDS011;11259;52.146;12.844;2023-05-16T01:39:01;3.55;;;1.92;;
22186;SDS011;11259;52.146;12.844;2023-05-16T01:41:30;4.57;;;2.08;;
22186;SDS011;11259;52.146;12.844;2023-05-16T01:44:03;2.35;;;2.08;;
22186;SDS011;11259;52.146;12.844;2023-05-16T01:46:32;2.35;;;1.95;;
22186;SDS011;11259;52.146;12.844;2023-05-16T01:49:03;6.90;;;2.17;;
22186;SDS011;11259;52.146;12.844;2023-05-16T01:51:31;2.47;;;2.03;;
22186;SDS011;11259;52.146;12.844;2023-05-16T01:53:57;2.63;;;2.05;;
22186;SDS011;11259;52.146;12.844;2023-05-16T01:56:26;2.38;;;1.95;;
22186;SDS011;11259;52.146;12.844;2023-05-16T01:58:52;1.92;;;1.50;;
22186;SDS011;11259;52.146;12.844;2023-05-16T02:01:20;2.63;;;2.08;;
22186;SDS011;11259;52.146;12.844;2023-05-16T02:03:45;4.13;;;2.13;;
22186;SDS011;11259;52.146;12.844;2023-05-16T02:06:10;2.88;;;2.38;;
22186;SDS011;11259;52.146;12.844;2023-05-16T02:08:36;2.97;;;2.22;;
22186;SDS011;11259;52.146;12.844;2023-05-16T02:11:02;2.15;;;1.95;;
22186;SDS011;11259;52.146;12.844;2023-05-16T02:13:27;3.55;;;1.90;;
22186;SDS011;11259;52.146;12.844;2023-05-16T02:15:53;1.85;;;1.58;;
22186;SDS011;11259;52.146;12.844;2023-05-16T02:18:19;3.70;;;2.45;;
22186;SDS011;11259;52.146;12.844;2023-05-16T02:20:45;3.10;;;1.80;;
22186;SDS011;11259;52.146;12.844;2023-05-16T02:23:10;3.50;;;2.58;;
22186;SDS011;11259;52.146;12.844;2023-05-16T02:25:35;3.22;;;2.42;;
22186;SDS011;11259;52.146;12.844;2023-05-16T02:28:01;2.05;;;1.48;;
22186;SDS011;11259;52.146;12.844;2023-05-16T02:30:26;2.67;;;1.85;;
22186;SDS011;11259;52.146;12.844;2023-05-16T02:32:51;4.28;;;2.95;;
22186;SDS011;11259;52.146;12.844;2023-05-16T02:35:18;2.17;;;1.63;;
22186;SDS011;11259;52.146;12.844;2023-05-16T02:37:43;2.45;;;1.98;;
22186;SDS011;11259;52.146;12.844;2023-05-16T02:40:09;3.65;;;2.42;;
22186;SDS011;11259;52.146;12.844;2023-05-16T02:42:35;2.63;;;2.35;;
22186;SDS011;11259;52.146;12.844;2023-05-16T02:45:00;3.22;;;2.05;;
22186;SDS011;11259;52.146;12.844;2023-05-16T02:47:25;3.00;;;2.25;;
22186;SDS011;11259;52.146;12.844;2023-05-16T02:49:51;3.45;;;2.42;;
22186;SDS011;11259;52.146;12.844;2023-05-16T02:52:18;3.35;;;2.38;;
22186;SDS011;11259;52.146;12.844;2023-05-16T02:54:43;2.38;;;1.98;;
22186;SDS011;11259;52.146;12.844;2023-05-16T02:57:08;3.85;;;2.08;;
22186;SDS011;11259;52.146;12.844;2023-05-16T02:59:34;2.95;;;2.33;;
22186;SDS011;11259;52.146;12.844;2023-05-16T03:01:59;2.28;;;2.08;;
22186;SDS011;11259;52.146;12.844;2023-05-16T03:04:24;2.70;;;1.90;;
22186;SDS011;11259;52.146;12.844;2023-05-16T03:06:50;2.60;;;2.33;;
22186;SDS011;11259;52.146;12.844;2023-05-16T03:09:16;7.65;;;2.28;;
22186;SDS011;11259;52.146;12.844;2023-05-16T03:11:42;3.38;;;2.22;;
22186;SDS011;11259;52.146;12.844;2023-05-16T03:14:07;2.45;;;2.10;;
22186;SDS011;11259;52.146;12.844;2023-05-16T03:16:32;3.20;;;2.47;;
22186;SDS011;11259;52.146;12.844;2023-05-16T03:18:58;2.50;;;2.13;;
22186;SDS011;11259;52.146;12.844;2023-05-16T03:21:23;7.53;;;2.65;;
22186;SDS011;11259;52.146;12.844;2023-05-16T03:23:48;4.53;;;2.95;;
22186;SDS011;11259;52.146;12.844;2023-05-16T03:26:15;3.20;;;2.55;;
22186;SDS011;11259;52.146;12.844;2023-05-16T03:28:40;3.28;;;2.75;;
22186;SDS011;11259;52.146;12.844;2023-05-16T03:31:06;5.28;;;2.90;;
22186;SDS011;11259;52.146;12.844;2023-05-16T03:33:31;3.05;;;2.15;;
22186;SDS011;11259;52.146;12.844;2023-05-16T03:35:56;3.22;;;2.22;;
22186;SDS011;11259;52.146;12.844;2023-05-16T03:38:22;2.92;;;2.30;;
22186;SDS011;11259;52.146;12.844;2023-05-16T03:40:47;2.10;;;1.90;;
22186;SDS011;11259;52.146;12.844;2023-05-16T03:43:14;4.63;;;2.97;;
22186;SDS011;11259;52.146;12.844;2023-05-16T03:45:39;4.82;;;2.83;;
22186;SDS011;11259;52.146;12.844;2023-05-16T03:48:04;3.80;;;2.63;;
22186;SDS011;11259;52.146;12.844;2023-05-16T03:50:30;3.78;;;1.98;;
22186;SDS011;11259;52.146;12.844;2023-05-16T03:52:55;2.67;;;2.30;;
22186;SDS011;11259;52.146;12.844;2023-05-16T03:55:21;2.30;;;2.10;;
22186;SDS011;11259;52.146;12.844;2023-05-16T03:57:46;9.82;;;2.80;;
22186;SDS011;11259;52.146;12.844;2023-05-16T04:00:13;3.30;;;2.38;;
22186;SDS011;11259;52.146;12.844;2023-05-16T04:02:39;2.92;;;2.30;;
22186;SDS011;11259;52.146;12.844;2023-05-16T04:05:05;3.03;;;2.15;;
22186;SDS011;11259;52.146;12.844;2023-05-16T04:07:31;3.30;;;2.53;;
22186;SDS011;11259;52.146;12.844;2023-05-16T04:09:56;4.32;;;2.35;;
22186;SDS011;11259;52.146;12.844;2023-05-16T04:12:22;4.00;;;2.33;;
22186;SDS011;11259;52.146;12.844;2023-05-16T04:14:47;2.38;;;2.17;;
22186;SDS011;11259;52.146;12.844;2023-05-16T04:17:14;2.78;;;2.10;;
22186;SDS011;11259;52.146;12.844;2023-05-16T04:19:39;2.40;;;2.20;;
22186;SDS011;11259;52.146;12.844;2023-05-16T04:22:04;1.83;;;1.58;;
22186;SDS011;11259;52.146;12.844;2023-05-16T04:24:30;3.35;;;2.28;;
22186;SDS011;11259;52.146;12.844;2023-05-16T04:26:55;3.00;;;1.77;;
22186;SDS011;11259;52.146;12.844;2023-05-16T04:29:20;2.38;;;2.13;;
22186;SDS011;11259;52.146;12.844;2023-05-16T04:31:46;1.63;;;1.45;;
22186;SDS011;11259;52.146;12.844;2023-05-16T04:34:13;2.17;;;1.50;;
22186;SDS011;11259;52.146;12.844;2023-05-16T04:36:38;3.08;;;2.53;;
22186;SDS011;11259;52.146;12.844;2023-05-16T04:39:03;1.88;;;1.75;;
22186;SDS011;11259;52.146;12.844;2023-05-16T04:41:29;3.20;;;1.85;;
22186;SDS011;11259;52.146;12.844;2023-05-16T04:43:54;2.60;;;1.67;;
22186;SDS011;11259;52.146;12.844;2023-05-16T04:46:19;2.25;;;1.73;;
22186;SDS011;11259;52.146;12.844;2023-05-16T04:48:44;1.40;;;1.30;;
22186;SDS011;11259;52.146;12.844;2023-05-16T04:51:11;1.58;;;1.42;;
22186;SDS011;11259;52.146;12.844;2023-05-16T04:53:36;6.93;;;2.25;;
22186;SDS011;11259;52.146;12.844;2023-05-16T04:56:02;1.42;;;1.33;;
22186;SDS011;11259;52.146;12.844;2023-05-16T04:58:27;2.13;;;1.92;;
22186;SDS011;11259;52.146;12.844;2023-05-16T05:00:53;1.55;;;1.45;;
22186;SDS011;11259;52.146;12.844;2023-05-16T05:03:18;4.05;;;1.98;;
22186;SDS011;11259;52.146;12.844;2023-05-16T05:05:43;1.33;;;1.23;;
22186;SDS011;11259;52.146;12.844;2023-05-16T05:08:10;1.70;;;1.60;;
22186;SDS011;11259;52.146;12.844;2023-05-16T05:10:36;1.52;;;1.17;;
22186;SDS011;11259;52.146;12.844;2023-05-16T05:13:01;2.97;;;1.83;;
22186;SDS011;11259;52.146;12.844;2023-05-16T05:15:26;1.17;;;1.08;;
22186;SDS011;11259;52.146;12.844;2023-05-16T05:17:51;1.25;;;1.15;;
22186;SDS011;11259;52.146;12.844;2023-05-16T05:20:17;1.60;;;1.30;;
22186;SDS011;11259;52.146;12.844;2023-05-16T05:22:42;2.20;;;1.80;;
22186;SDS011;11259;52.146;12.844;2023-05-16T05:25:09;2.55;;;1.52;;
22186;SDS011;11259;52.146;12.844;2023-05-16T05:27:34;3.63;;;1.65;;
22186;SDS011;11259;52.146;12.844;2023-05-16T05:30:00;1.63;;;1.52;;
22186;SDS011;11259;52.146;12.844;2023-05-16T05:32:26;2.40;;;1.63;;
22186;SDS011;11259;52.146;12.844;2023-05-16T05:34:51;2.55;;;1.42;;
22186;SDS011;11259;52.146;12.844;2023-05-16T05:37:16;3.17;;;1.52;;
22186;SDS011;11259;52.146;12.844;2023-05-16T05:39:42;2.90;;;1.65;;
22186;SDS011;11259;52.146;12.844;2023-05-16T05:42:08;1.05;;;1.00;;
22186;SDS011;11259;52.146;12.844;2023-05-16T05:44:34;2.47;;;2.03;;
22186;SDS011;11259;52.146;12.844;2023-05-16T05:46:59;2.95;;;1.77;;
22186;SDS011;11259;52.146;12.844;2023-05-16T05:49:24;2.22;;;1.45;;
22186;SDS011;11259;52.146;12.844;2023-05-16T05:51:50;2.22;;;1.70;;
22186;SDS011;11259;52.146;12.844;2023-05-16T05:54:16;1.30;;;1.20;;
22186;SDS011;11259;52.146;12.844;2023-05-16T05:56:41;1.40;;;1.13;;
22186;SDS011;11259;52.146;12.844;2023-05-16T05:59:08;1.83;;;1.30;;
22186;SDS011;11259;52.146;12.844;2023-05-16T06:01:33;1.20;;;1.10;;
22186;SDS011;11259;52.146;12.844;2023-05-16T06:03:58;0.95;;;0.95;;
22186;SDS011;11259;52.146;12.844;2023-05-16T06:06:24;3.88;;;1.52;;
22186;SDS011;11259;52.146;12.844;2023-05-16T06:08:49;1.85;;;1.50;;
22186;SDS011;11259;52.146;12.844;2023-05-16T06:11:14;1.60;;;1.30;;
22186;SDS011;11259;52.146;12.844;2023-05-16T06:13:40;1.08;;;0.95;;
22186;SDS011;11259;52.146;12.844;2023-05-16T06:16:07;2.67;;;1.92;;
22186;SDS011;11259;52.146;12.844;2023-05-16T06:18:32;1.20;;;1.10;;
22186;SDS011;11259;52.146;12.844;2023-05-16T06:20:57;1.73;;;1.40;;
22186;SDS011;11259;52.146;12.844;2023-05-16T06:23:22;1.70;;;1.38;;
22186;SDS011;11259;52.146;12.844;2023-05-16T06:25:48;1.58;;;1.38;;
22186;SDS011;11259;52.146;12.844;2023-05-16T06:28:14;1.17;;;1.08;;
22186;SDS011;11259;52.146;12.844;2023-05-16T06:30:40;1.40;;;1.30;;
22186;SDS011;11259;52.146;12.844;2023-05-16T06:33:06;1.15;;;1.05;;
22186;SDS011;11259;52.146;12.844;2023-05-16T06:35:32;1.50;;;1.40;;
22186;SDS011;11259;52.146;12.844;2023-05-16T06:37:57;2.17;;;1.50;;
22186;SDS011;11259;52.146;12.844;2023-05-16T06:40:22;1.30;;;1.20;;
22186;SDS011;11259;52.146;12.844;2023-05-16T06:42:48;2.47;;;1.55;;
22186;SDS011;11259;52.146;12.844;2023-05-16T06:45:13;2.92;;;2.15;;
22186;SDS011;11259;52.146;12.844;2023-05-16T06:47:38;1.63;;;1.52;;
22186;SDS011;11259;52.146;12.844;2023-05-16T06:50:06;1.27;;;1.15;;
22186;SDS011;11259;52.146;12.844;2023-05-16T06:52:32;2.60;;;1.38;;
22186;SDS011;11259;52.146;12.844;2023-05-16T06:54:57;2.00;;;1.20;;
22186;SDS011;11259;52.146;12.844;2023-05-16T06:57:22;1.35;;;1.25;;
22186;SDS011;11259;52.146;12.844;2023-05-16T06:59:48;2.35;;;2.13;;
22186;SDS011;11259;52.146;12.844;2023-05-16T07:02:13;3.90;;;2.28;;
22186;SDS011;11259;52.146;12.844;2023-05-16T07:04:38;1.60;;;1.38;;
22186;SDS011;11259;52.146;12.844;2023-05-16T07:07:05;1.70;;;1.45;;
22186;SDS011;11259;52.146;12.844;2023-05-16T07:09:30;1.67;;;1.02;;
22186;SDS011;11259;52.146;12.844;2023-05-16T07:11:56;1.30;;;1.20;;
22186;SDS011;11259;52.146;12.844;2023-05-16T07:14:21;1.63;;;1.20;;
22186;SDS011;11259;52.146;12.844;2023-05-16T07:16:46;4.55;;;1.80;;
22186;SDS011;11259;52.146;12.844;2023-05-16T07:19:11;1.48;;;1.25;;
22186;SDS011;11259;52.146;12.844;2023-05-16T07:21:37;1.63;;;1.20;;
22186;SDS011;11259;52.146;12.844;2023-05-16T07:24:04;1.60;;;1.50;;
22186;SDS011;11259;52.146;12.844;2023-05-16T07:26:30;2.58;;;1.60;;
22186;SDS011;11259;52.146;12.844;2023-05-16T07:28:56;1.65;;;1.45;;
22186;SDS011;11259;52.146;12.844;2023-05-16T07:31:21;2.40;;;1.42;;
22186;SDS011;11259;52.146;12.844;2023-05-16T07:33:46;1.58;;;1.48;;
22186;SDS011;11259;52.146;12.844;2023-05-16T07:36:12;2.05;;;1.60;;
22186;SDS011;11259;52.146;12.844;2023-05-16T07:38:37;1.60;;;1.48;;
22186;SDS011;11259;52.146;12.844;2023-05-16T07:41:04;1.50;;;1.40;;
22186;SDS011;11259;52.146;12.844;2023-05-16T07:43:29;1.95;;;1.50;;
22186;SDS011;11259;52.146;12.844;2023-05-16T07:45:54;1.80;;;1.60;;
22186;SDS011;11259;52.146;12.844;2023-05-16T07:48:20;2.13;;;1.80;;
22186;SDS011;11259;52.146;12.844;2023-05-16T07:50:45;1.92;;;1.33;;
22186;SDS011;11259;52.146;12.844;2023-05-16T07:53:10;2.15;;;1.38;;
22186;SDS011;11259;52.146;12.844;2023-05-16T07:55:36;1.30;;;1.20;;
22186;SDS011;11259;52.146;12.844;2023-05-16T07:58:02;2.80;;;2.10;;
22186;SDS011;11259;52.146;12.844;2023-05-16T08:00:28;1.27;;;1.17;;
22186;SDS011;11259;52.146;12.844;2023-05-16T08:02:53;2.20;;;1.52;;
22186;SDS011;11259;52.146;12.844;2023-05-16T08:05:18;1.65;;;1.25;;
22186;SDS011;11259;52.146;12.844;2023-05-16T08:07:44;1.58;;;1.48;;
22186;SDS011;11259;52.146;12.844;2023-05-16T08:10:09;1.75;;;1.40;;
22186;SDS011;11259;52.146;12.844;2023-05-16T08:12:34;1.48;;;1.38;;
22186;SDS011;11259;52.146;12.844;2023-05-16T08:15:01;1.67;;;1.13;;
22186;SDS011;11259;52.146;12.844;2023-05-16T08:17:27;1.20;;;1.10;;
22186;SDS011;11259;52.146;12.844;2023-05-16T08:19:52;4.80;;;2.03;;
22186;SDS011;11259;52.146;12.844;2023-05-16T08:22:17;9.43;;;4.30;;
22186;SDS011;11259;52.146;12.844;2023-05-16T08:24:42;19.25;;;8.20;;
22186;SDS011;11259;52.146;12.844;2023-05-16T08:27:08;10.80;;;4.03;;
22186;SDS011;11259;52.146;12.844;2023-05-16T08:29:33;5.68;;;3.83;;
22186;SDS011;11259;52.146;12.844;2023-05-16T08:32:00;1.73;;;1.50;;
22186;SDS011;11259;52.146;12.844;2023-05-16T08:34:25;1.40;;;1.05;;
22186;SDS011;11259;52.146;12.844;2023-05-16T08:36:50;0.93;;;0.93;;
22186;SDS011;11259;52.146;12.844;2023-05-16T08:39:16;1.10;;;1.00;;
22186;SDS011;11259;52.146;12.844;2023-05-16T08:41:41;0.90;;;0.90;;
22186;SDS011;11259;52.146;12.844;2023-05-16T08:44:07;0.80;;;0.80;;
22186;SDS011;11259;52.146;12.844;2023-05-16T08:46:32;1.33;;;1.20;;
22186;SDS011;11259;52.146;12.844;2023-05-16T08:48:59;1.00;;;0.90;;
22186;SDS011;11259;52.146;12.844;2023-05-16T08:51:25;1.13;;;1.02;;
22186;SDS011;11259;52.146;12.844;2023-05-16T08:53:53;1.25;;;1.15;;
22186;SDS011;11259;52.146;12.844;2023-05-16T08:56:23;0.88;;;0.82;;
22186;SDS011;11259;52.146;12.844;2023-05-16T08:58:49;1.30;;;1.02;;
22186;SDS011;11259;52.146;12.844;2023-05-16T09:01:15;1.20;;;0.70;;
22186;SDS011;11259;52.146;12.844;2023-05-16T09:03:40;1.00;;;0.90;;
22186;SDS011;11259;52.146;12.844;2023-05-16T09:06:08;1.20;;;1.00;;
22186;SDS011;11259;52.146;12.844;2023-05-16T09:08:33;1.15;;;1.10;;
22186;SDS011;11259;52.146;12.844;2023-05-16T09:10:58;2.80;;;1.80;;
22186;SDS011;11259;52.146;12.844;2023-05-16T09:13:24;6.50;;;1.60;;
22186;SDS011;11259;52.146;12.844;2023-05-16T09:18:33;1.00;;;0.90;;
22186;SDS011;11259;52.146;12.844;2023-05-16T09:20:58;1.00;;;1.00;;
22186;SDS011;11259;52.146;12.844;2023-05-16T09:23:25;0.80;;;0.80;;
22186;SDS011;11259;52.146;12.844;2023-05-16T09:25:51;0.63;;;0.63;;
22186;SDS011;11259;52.146;12.844;2023-05-16T09:28:17;0.70;;;0.70;;
22186;SDS011;11259;52.146;12.844;2023-05-16T09:30:43;1.02;;;0.82;;
22186;SDS011;11259;52.146;12.844;2023-05-16T09:33:10;1.05;;;1.02;;
22186;SDS011;11259;52.146;12.844;2023-05-16T09:35:36;1.20;;;1.00;;
22186;SDS011;11259;52.146;12.844;2023-05-16T09:38:01;1.20;;;1.10;;
22186;SDS011;11259;52.146;12.844;2023-05-16T09:40:27;0.80;;;0.80;;
22186;SDS011;11259;52.146;12.844;2023-05-16T09:43:00;2.05;;;1.25;;
22186;SDS011;11259;52.146;12.844;2023-05-16T09:45:26;0.80;;;0.80;;
22186;SDS011;11259;52.146;12.844;2023-05-16T09:47:51;0.93;;;0.82;;
22186;SDS011;11259;52.146;12.844;2023-05-16T09:50:17;0.85;;;0.85;;
22186;SDS011;11259;52.146;12.844;2023-05-16T09:52:42;1.38;;;0.82;;
22186;SDS011;11259;52.146;12.844;2023-05-16T09:55:08;0.82;;;0.80;;
22186;SDS011;11259;52.146;12.844;2023-05-16T09:57:37;0.93;;;0.80;;
22186;SDS011;11259;52.146;12.844;2023-05-16T10:00:04;0.93;;;0.77;;
22186;SDS011;11259;52.146;12.844;2023-05-16T10:02:30;1.05;;;1.05;;
22186;SDS011;11259;52.146;12.844;2023-05-16T10:04:55;0.80;;;0.80;;
22186;SDS011;11259;52.146;12.844;2023-05-16T10:07:21;1.05;;;1.00;;
22186;SDS011;11259;52.146;12.844;2023-05-16T10:09:46;2.42;;;1.17;;
22186;SDS011;11259;52.146;12.844;2023-05-16T10:12:11;0.90;;;0.80;;
22186;SDS011;11259;52.146;12.844;2023-05-16T10:14:38;3.20;;;1.52;;
22186;SDS011;11259;52.146;12.844;2023-05-16T10:17:05;0.80;;;0.80;;
22186;SDS011;11259;52.146;12.844;2023-05-16T10:19:32;1.10;;;1.00;;
22186;SDS011;11259;52.146;12.844;2023-05-16T10:22:02;1.42;;;1.33;;
22186;SDS011;11259;52.146;12.844;2023-05-16T10:24:30;1.20;;;0.90;;
22186;SDS011;11259;52.146;12.844;2023-05-16T10:27:01;0.77;;;0.77;;
22186;SDS011;11259;52.146;12.844;2023-05-16T10:29:27;0.57;;;0.57;;
22186;SDS011;11259;52.146;12.844;2023-05-16T10:31:53;0.75;;;0.75;;
22186;SDS011;11259;52.146;12.844;2023-05-16T10:34:19;3.30;;;1.25;;
22186;SDS011;11259;52.146;12.844;2023-05-16T10:36:44;1.10;;;1.10;;
22186;SDS011;11259;52.146;12.844;2023-05-16T10:39:10;1.02;;;0.98;;
22186;SDS011;11259;52.146;12.844;2023-05-16T10:41:36;1.80;;;1.02;;
22186;SDS011;11259;52.146;12.844;2023-05-16T10:44:01;3.13;;;1.80;;
22186;SDS011;11259;52.146;12.844;2023-05-16T10:46:27;0.57;;;0.57;;
22186;SDS011;11259;52.146;12.844;2023-05-16T10:48:53;2.88;;;0.90;;
22186;SDS011;11259;52.146;12.844;2023-05-16T10:51:37;1.75;;;1.55;;
22186;SDS011;11259;52.146;12.844;2023-05-16T10:54:03;3.35;;;1.58;;
22186;SDS011;11259;52.146;12.844;2023-05-16T10:56:30;1.40;;;1.30;;
22186;SDS011;11259;52.146;12.844;2023-05-16T10:58:56;0.93;;;0.90;;
22186;SDS011;11259;52.146;12.844;2023-05-16T11:01:23;0.85;;;0.77;;
22186;SDS011;11259;52.146;12.844;2023-05-16T11:04:03;0.77;;;0.77;;
22186;SDS011;11259;52.146;12.844;2023-05-16T11:06:33;4.80;;;1.10;;
22186;SDS011;11259;52.146;12.844;2023-05-16T11:09:05;0.95;;;0.90;;
22186;SDS011;11259;52.146;12.844;2023-05-16T11:11:37;0.75;;;0.75;;
22186;SDS011;11259;52.146;12.844;2023-05-16T11:14:04;1.23;;;0.73;;
22186;SDS011;11259;52.146;12.844;2023-05-16T11:16:29;1.38;;;0.95;;
22186;SDS011;11259;52.146;12.844;2023-05-16T11:18:57;1.30;;;1.10;;
22186;SDS011;11259;52.146;12.844;2023-05-16T11:24:28;2.05;;;1.00;;
22186;SDS011;11259;52.146;12.844;2023-05-16T11:26:54;0.70;;;0.70;;
22186;SDS011;11259;52.146;12.844;2023-05-16T11:29:19;7.00;;;1.67;;
22186;SDS011;11259;52.146;12.844;2023-05-16T11:31:45;0.60;;;0.60;;
22186;SDS011;11259;52.146;12.844;2023-05-16T11:34:13;0.80;;;0.80;;
22186;SDS011;11259;52.146;12.844;2023-05-16T11:36:38;1.20;;;0.88;;
22186;SDS011;11259;52.146;12.844;2023-05-16T11:39:06;1.60;;;0.93;;
22186;SDS011;11259;52.146;12.844;2023-05-16T11:41:32;0.77;;;0.77;;
22186;SDS011;11259;52.146;12.844;2023-05-16T11:43:57;1.85;;;0.60;;
22186;SDS011;11259;52.146;12.844;2023-05-16T11:46:23;2.47;;;0.90;;
22186;SDS011;11259;52.146;12.844;2023-05-16T11:48:48;0.70;;;0.70;;
22186;SDS011;11259;52.146;12.844;2023-05-16T11:51:14;0.75;;;0.75;;
22186;SDS011;11259;52.146;12.844;2023-05-16T11:53:42;0.65;;;0.57;;
22186;SDS011;11259;52.146;12.844;2023-05-16T11:56:07;0.70;;;0.70;;
22186;SDS011;11259;52.146;12.844;2023-05-16T11:58:32;1.77;;;0.93;;
22186;SDS011;11259;52.146;12.844;2023-05-16T12:00:58;0.57;;;0.57;;
22186;SDS011;11259;52.146;12.844;2023-05-16T12:03:23;0.60;;;0.60;;
22186;SDS011;11259;52.146;12.844;2023-05-16T12:05:49;1.52;;;1.17;;
22186;SDS011;11259;52.146;12.844;2023-05-16T12:08:16;1.33;;;1.23;;
22186;SDS011;11259;52.146;12.844;2023-05-16T12:10:41;0.88;;;0.88;;
22186;SDS011;11259;52.146;12.844;2023-05-16T12:13:06;0.50;;;0.50;;
22186;SDS011;11259;52.146;12.844;2023-05-16T12:15:32;0.77;;;0.60;;
22186;SDS011;11259;52.146;12.844;2023-05-16T12:17:57;2.05;;;1.17;;
22186;SDS011;11259;52.146;12.844;2023-05-16T12:20:23;0.40;;;0.40;;
22186;SDS011;11259;52.146;12.844;2023-05-16T12:22:48;0.90;;;0.90;;
22186;SDS011;11259;52.146;12.844;2023-05-16T12:25:21;1.20;;;1.05;;
22186;SDS011;11259;52.146;12.844;2023-05-16T12:27:47;0.60;;;0.60;;
22186;SDS011;11259;52.146;12.844;2023-05-16T12:30:13;1.38;;;0.73;;
22186;SDS011;11259;52.146;12.844;2023-05-16T12:32:40;3.50;;;0.75;;
22186;SDS011;11259;52.146;12.844;2023-05-16T12:35:06;0.60;;;0.60;;
22186;SDS011;11259;52.146;12.844;2023-05-16T12:37:31;0.68;;;0.68;;
22186;SDS011;11259;52.146;12.844;2023-05-16T12:39:58;1.17;;;0.77;;
22186;SDS011;11259;52.146;12.844;2023-05-16T12:42:26;0.70;;;0.70;;
22186;SDS011;11259;52.146;12.844;2023-05-16T12:44:54;3.08;;;1.30;;
22186;SDS011;11259;52.146;12.844;2023-05-16T12:47:19;1.92;;;0.50;;
22186;SDS011;11259;52.146;12.844;2023-05-16T12:49:45;0.60;;;0.60;;
22186;SDS011;11259;52.146;12.844;2023-05-16T12:52:11;0.82;;;0.82;;
22186;SDS011;11259;52.146;12.844;2023-05-16T12:54:41;1.75;;;0.68;;
22186;SDS011;11259;52.146;12.844;2023-05-16T12:57:07;2.35;;;0.90;;
22186;SDS011;11259;52.146;12.844;2023-05-16T12:59:33;1.08;;;0.65;;
22186;SDS011;11259;52.146;12.844;2023-05-16T13:01:59;0.40;;;0.40;;
22186;SDS011;11259;52.146;12.844;2023-05-16T13:04:24;2.03;;;1.48;;
22186;SDS011;11259;52.146;12.844;2023-05-16T13:06:49;2.72;;;1.33;;
22186;SDS011;11259;52.146;12.844;2023-05-16T13:09:14;0.40;;;0.40;;
22186;SDS011;11259;52.146;12.844;2023-05-16T13:11:40;0.63;;;0.52;;
22186;SDS011;11259;52.146;12.844;2023-05-16T13:14:05;0.40;;;0.40;;
22186;SDS011;11259;52.146;12.844;2023-05-16T13:16:32;2.55;;;0.60;;
22186;SDS011;11259;52.146;12.844;2023-05-16T13:18:57;1.00;;;0.60;;
22186;SDS011;11259;52.146;12.844;2023-05-16T13:21:22;0.60;;;0.60;;
22186;SDS011;11259;52.146;12.844;2023-05-16T13:23:48;4.60;;;1.02;;
22186;SDS011;11259;52.146;12.844;2023-05-16T13:26:13;2.00;;;0.65;;
22186;SDS011;11259;52.146;12.844;2023-05-16T13:28:38;4.18;;;0.77;;
22186;SDS011;11259;52.146;12.844;2023-05-16T13:31:04;0.68;;;0.60;;
22186;SDS011;11259;52.146;12.844;2023-05-16T13:33:30;0.55;;;0.55;;
22186;SDS011;11259;52.146;12.844;2023-05-16T13:35:56;2.55;;;1.40;;
22186;SDS011;11259;52.146;12.844;2023-05-16T13:38:21;1.30;;;0.55;;
22186;SDS011;11259;52.146;12.844;2023-05-16T13:40:46;0.50;;;0.50;;
22186;SDS011;11259;52.146;12.844;2023-05-16T13:43:12;0.38;;;0.32;;
22186;SDS011;11259;52.146;12.844;2023-05-16T13:45:37;0.82;;;0.80;;
22186;SDS011;11259;52.146;12.844;2023-05-16T13:48:02;1.15;;;0.95;;
22186;SDS011;11259;52.146;12.844;2023-05-16T13:50:29;0.40;;;0.40;;
22186;SDS011;11259;52.146;12.844;2023-05-16T13:52:55;0.68;;;0.68;;
22186;SDS011;11259;52.146;12.844;2023-05-16T13:55:20;2.83;;;0.55;;
22186;SDS011;11259;52.146;12.844;2023-05-16T13:57:46;0.60;;;0.60;;
22186;SDS011;11259;52.146;12.844;2023-05-16T14:00:11;0.95;;;0.85;;
22186;SDS011;11259;52.146;12.844;2023-05-16T14:02:37;0.80;;;0.80;;
22186;SDS011;11259;52.146;12.844;2023-05-16T14:05:03;1.90;;;0.85;;
22186;SDS011;11259;52.146;12.844;2023-05-16T14:07:30;0.40;;;0.40;;
22186;SDS011;11259;52.146;12.844;2023-05-16T14:09:55;3.47;;;0.60;;
22186;SDS011;11259;52.146;12.844;2023-05-16T14:12:21;1.50;;;0.68;;
22186;SDS011;11259;52.146;12.844;2023-05-16T14:14:46;0.88;;;0.70;;
22186;SDS011;11259;52.146;12.844;2023-05-16T14:17:11;0.40;;;0.40;;
22186;SDS011;11259;52.146;12.844;2023-05-16T14:19:37;0.90;;;0.50;;
22186;SDS011;11259;52.146;12.844;2023-05-16T14:22:02;0.85;;;0.85;;
22186;SDS011;11259;52.146;12.844;2023-05-16T14:24:29;0.50;;;0.50;;
22186;SDS011;11259;52.146;12.844;2023-05-16T14:26:54;0.65;;;0.65;;
22186;SDS011;11259;52.146;12.844;2023-05-16T14:29:19;0.65;;;0.65;;
22186;SDS011;11259;52.146;12.844;2023-05-16T14:31:45;1.85;;;0.60;;